createdAt,value
2019-02-18T00:00:35.142Z,16.53
2019-02-18T00:03:04.318Z,16.00
2019-02-18T00:05:32.787Z,14.30
2019-02-18T00:08:01.267Z,16.30
2019-02-18T00:10:29.727Z,13.80
2019-02-18T00:12:58.130Z,17.33
2019-02-18T00:15:26.585Z,13.50
2019-02-18T00:17:55.057Z,13.40
2019-02-18T00:20:23.503Z,16.13
2019-02-18T00:22:51.935Z,14.20
2019-02-18T00:25:20.404Z,13.90
2019-02-18T00:27:48.833Z,15.13
2019-02-18T00:30:17.292Z,14.53
2019-02-18T00:32:45.785Z,14.70
2019-02-18T00:35:14.261Z,15.73
2019-02-18T00:37:42.697Z,14.60
2019-02-18T00:40:11.234Z,15.00
2019-02-18T00:42:39.710Z,14.43
2019-02-18T00:45:11.249Z,13.00
2019-02-18T00:47:39.698Z,14.33
2019-02-18T00:50:09.775Z,15.40
2019-02-18T00:52:38.258Z,13.00
2019-02-18T00:55:07.668Z,17.10
2019-02-18T00:57:36.124Z,15.17
2019-02-18T01:00:10.805Z,14.40
2019-02-18T01:02:39.375Z,13.57
2019-02-18T01:05:08.141Z,14.83
2019-02-18T01:07:36.638Z,13.30
2019-02-18T01:10:10.478Z,14.07
2019-02-18T01:12:39.081Z,13.00
2019-02-18T01:15:12.989Z,14.67
2019-02-18T01:17:41.493Z,14.73
2019-02-18T01:20:14.416Z,14.60
2019-02-18T01:22:42.858Z,13.97
2019-02-18T01:25:12.903Z,12.97
2019-02-18T01:27:41.529Z,14.30
2019-02-18T01:30:12.583Z,14.73
2019-02-18T01:32:41.037Z,15.80
2019-02-18T01:35:09.689Z,15.23
2019-02-18T01:37:45.235Z,15.03
2019-02-18T01:40:10.840Z,13.70
2019-02-18T01:42:39.292Z,17.93
2019-02-18T01:45:10.365Z,13.10
2019-02-18T01:47:38.785Z,14.20
2019-02-18T01:50:12.549Z,16.47
2019-02-18T01:52:41.116Z,16.37
2019-02-18T01:55:10.632Z,14.70
2019-02-18T01:57:39.078Z,17.47
2019-02-18T02:00:16.629Z,17.40
2019-02-18T02:02:45.107Z,15.93
2019-02-18T02:05:15.048Z,15.67
2019-02-18T02:07:43.628Z,17.60
2019-02-18T02:10:14.654Z,16.33
2019-02-18T02:12:43.162Z,16.43
2019-02-18T02:15:14.632Z,16.80
2019-02-18T02:17:43.052Z,16.83
2019-02-18T02:20:11.562Z,18.17
2019-02-18T02:22:39.980Z,19.70
2019-02-18T02:25:08.562Z,16.07
2019-02-18T02:27:37.045Z,18.90
2019-02-18T02:30:07.618Z,18.73
2019-02-18T02:32:36.120Z,18.47
2019-02-18T02:35:05.200Z,20.17
2019-02-18T02:37:33.774Z,18.47
2019-02-18T02:40:02.222Z,16.50
2019-02-18T02:42:30.768Z,16.30
2019-02-18T02:44:59.225Z,19.13
2019-02-18T02:47:27.650Z,17.27
2019-02-18T02:49:56.069Z,15.93
2019-02-18T02:52:24.533Z,15.13
2019-02-18T02:54:52.958Z,22.13
2019-02-18T02:57:21.400Z,16.80
2019-02-18T02:59:49.937Z,16.20
2019-02-18T03:02:18.364Z,19.10
2019-02-18T03:04:46.817Z,18.60
2019-02-18T03:07:15.265Z,20.43
2019-02-18T03:09:43.673Z,19.60
2019-02-18T03:12:12.112Z,18.60
2019-02-18T03:14:40.602Z,20.00
2019-02-18T03:17:09.057Z,17.10
2019-02-18T03:19:37.471Z,17.43
2019-02-18T03:22:05.904Z,19.97
2019-02-18T03:24:34.323Z,21.20
2019-02-18T03:27:02.765Z,20.03
2019-02-18T03:29:50.782Z,19.03
2019-02-18T03:32:19.285Z,18.50
2019-02-18T03:34:47.720Z,17.77
2019-02-18T03:37:16.168Z,19.67
2019-02-18T03:39:44.649Z,19.33
2019-02-18T03:42:13.121Z,17.50
2019-02-18T03:44:41.527Z,20.07
2019-02-18T03:47:09.955Z,20.93
2019-02-18T03:49:38.460Z,16.57
2019-02-18T03:52:06.865Z,18.27
2019-02-18T03:54:35.319Z,20.20
2019-02-18T03:57:03.753Z,19.63
2019-02-18T03:59:32.312Z,18.13
2019-02-18T04:02:00.743Z,16.83
2019-02-18T04:04:29.298Z,18.43
2019-02-18T04:06:57.750Z,19.97
2019-02-18T04:09:26.215Z,17.27
2019-02-18T04:11:54.651Z,18.23
2019-02-18T04:14:23.090Z,19.17
2019-02-18T04:16:51.605Z,18.10
2019-02-18T04:19:20.137Z,17.33
2019-02-18T04:21:48.622Z,17.97
2019-02-18T04:24:17.082Z,17.37
2019-02-18T04:26:45.498Z,17.80
2019-02-18T04:29:13.953Z,16.80
2019-02-18T04:31:42.377Z,20.90
2019-02-18T04:34:10.828Z,18.27
2019-02-18T04:36:39.324Z,17.70
2019-02-18T04:39:07.866Z,17.70
2019-02-18T04:41:36.348Z,16.63
2019-02-18T04:44:04.784Z,19.40
2019-02-18T04:46:33.285Z,17.13
2019-02-18T04:49:01.691Z,20.07
2019-02-18T04:51:30.136Z,18.97
2019-02-18T04:53:58.553Z,14.80
2019-02-18T04:56:26.994Z,18.43
2019-02-18T04:58:55.396Z,17.90
2019-02-18T05:01:23.825Z,18.30
2019-02-18T05:03:52.237Z,16.00
2019-02-18T05:06:20.669Z,15.83
2019-02-18T05:08:49.088Z,15.43
2019-02-18T05:11:17.536Z,16.67
2019-02-18T05:13:46.101Z,15.30
2019-02-18T05:16:14.561Z,14.30
2019-02-18T05:18:42.984Z,16.07
2019-02-18T05:21:11.655Z,18.83
2019-02-18T05:23:40.088Z,15.57
2019-02-18T05:26:08.512Z,16.27
2019-02-18T05:28:36.951Z,15.03
2019-02-18T05:31:05.472Z,16.00
2019-02-18T05:33:33.915Z,17.10
2019-02-18T05:36:02.361Z,16.27
2019-02-18T05:38:30.765Z,15.70
2019-02-18T05:40:59.202Z,16.60
2019-02-18T05:43:27.646Z,18.70
2019-02-18T05:45:56.065Z,16.90
2019-02-18T05:48:24.506Z,16.27
2019-02-18T05:50:52.905Z,16.47
2019-02-18T05:53:21.354Z,14.00
2019-02-18T05:55:49.765Z,17.90
2019-02-18T05:58:18.198Z,16.63
2019-02-18T06:00:46.627Z,17.93
2019-02-18T06:03:15.079Z,15.30
2019-02-18T06:05:43.514Z,17.77
2019-02-18T06:08:11.958Z,15.40
2019-02-18T06:10:40.432Z,18.90
2019-02-18T06:13:08.917Z,18.80
2019-02-18T06:15:37.352Z,16.37
2019-02-18T06:18:05.880Z,15.90
2019-02-18T06:20:34.297Z,17.67
2019-02-18T06:23:02.745Z,18.33
2019-02-18T06:25:31.165Z,16.93
2019-02-18T06:27:59.601Z,16.07
2019-02-18T06:30:28.021Z,19.97
2019-02-18T06:32:56.513Z,18.70
2019-02-18T06:35:24.932Z,18.63
2019-02-18T06:37:53.362Z,17.63
2019-02-18T06:40:21.819Z,22.37
2019-02-18T06:42:50.222Z,19.37
2019-02-18T06:45:36.581Z,22.90
2019-02-18T06:48:15.679Z,18.30
2019-02-18T06:50:44.133Z,16.50
2019-02-18T06:53:12.625Z,19.43
2019-02-18T06:55:41.098Z,17.33
2019-02-18T06:58:16.843Z,16.63
2019-02-18T07:00:52.898Z,15.60
2019-02-18T07:03:22.973Z,15.80
2019-02-18T07:06:04.939Z,16.37
2019-02-18T07:08:40.946Z,17.30
2019-02-18T07:11:11.039Z,15.83
2019-02-18T07:13:39.465Z,16.70
2019-02-18T07:16:07.893Z,18.10
2019-02-18T07:18:36.320Z,20.53
2019-02-18T07:21:04.758Z,17.60
2019-02-18T07:23:33.190Z,17.63
2019-02-18T07:26:01.692Z,14.90
2019-02-18T07:28:30.407Z,20.40
2019-02-18T07:31:00.442Z,18.17
2019-02-18T07:33:28.852Z,14.40
2019-02-18T07:35:57.308Z,19.30
2019-02-18T07:38:25.763Z,16.47
2019-02-18T07:40:54.181Z,17.63
2019-02-18T07:43:23.242Z,16.60
2019-02-18T07:45:51.717Z,16.07
2019-02-18T07:48:20.141Z,19.93
2019-02-18T07:50:48.581Z,17.37
2019-02-18T07:53:17.036Z,15.87
2019-02-18T07:55:45.504Z,15.83
2019-02-18T07:58:13.930Z,17.67
2019-02-18T08:00:42.459Z,14.30
2019-02-18T08:03:10.893Z,14.57
2019-02-18T08:05:39.314Z,14.43
2019-02-18T08:08:07.750Z,14.40
2019-02-18T08:10:36.199Z,16.87
2019-02-18T08:13:04.620Z,14.67
2019-02-18T08:15:33.040Z,18.43
2019-02-18T08:18:01.508Z,14.47
2019-02-18T08:20:30.009Z,14.23
2019-02-18T08:22:58.446Z,15.40
2019-02-18T08:25:26.869Z,14.10
2019-02-18T08:27:55.302Z,15.50
2019-02-18T08:30:23.720Z,17.80
2019-02-18T08:32:52.170Z,14.30
2019-02-18T08:35:20.725Z,16.13
2019-02-18T08:37:49.153Z,16.47
2019-02-18T08:40:22.447Z,16.80
2019-02-18T08:42:47.752Z,14.40
2019-02-18T08:45:16.197Z,14.40
2019-02-18T08:47:44.662Z,13.70
2019-02-18T08:50:13.234Z,16.33
2019-02-18T08:52:41.683Z,16.30
2019-02-18T08:55:12.156Z,13.50
2019-02-18T08:57:40.552Z,13.03
2019-02-18T09:00:14.547Z,14.23
2019-02-18T09:02:42.984Z,14.47
2019-02-18T09:05:11.657Z,14.97
2019-02-18T09:07:40.149Z,14.13
2019-02-18T09:10:13.164Z,12.17
2019-02-18T09:12:41.592Z,17.27
2019-02-18T09:15:11.061Z,12.83
2019-02-18T09:17:39.493Z,12.90
2019-02-18T09:20:09.270Z,13.07
2019-02-18T09:22:57.388Z,13.03
2019-02-18T09:25:30.505Z,13.23
2019-02-18T09:27:58.937Z,12.20
2019-02-18T09:30:29.010Z,10.30
2019-02-18T09:32:57.433Z,11.27
2019-02-18T09:35:25.885Z,11.20
2019-02-18T09:37:54.302Z,13.00
2019-02-18T09:40:22.804Z,12.00
2019-02-18T09:42:51.233Z,12.70
2019-02-18T09:45:19.666Z,11.77
2019-02-18T09:47:48.082Z,16.13
2019-02-18T09:50:16.530Z,14.23
2019-02-18T09:52:44.946Z,11.47
2019-02-18T09:55:13.405Z,11.83
2019-02-18T09:57:41.889Z,14.57
2019-02-18T10:00:13.319Z,15.70
2019-02-18T10:02:41.760Z,13.53
2019-02-18T10:05:10.346Z,12.77
2019-02-18T10:07:38.758Z,11.07
2019-02-18T10:10:09.774Z,9.73
2019-02-18T10:12:38.213Z,10.13
2019-02-18T10:15:09.480Z,12.20
2019-02-18T10:17:37.921Z,10.00
2019-02-18T10:20:09.783Z,10.87
2019-02-18T10:22:38.283Z,10.47
2019-02-18T10:25:09.541Z,8.97
2019-02-18T10:27:38.044Z,9.87
2019-02-18T10:30:10.056Z,10.20
2019-02-18T10:32:38.501Z,7.47
2019-02-18T10:35:10.114Z,9.87
2019-02-18T10:37:38.565Z,11.37
2019-02-18T10:40:08.730Z,13.33
2019-02-18T10:42:37.261Z,12.17
2019-02-18T10:45:08.922Z,11.63
2019-02-18T10:47:37.438Z,10.47
2019-02-18T10:50:07.609Z,11.63
2019-02-18T10:52:36.054Z,13.03
2019-02-18T10:55:05.613Z,9.47
2019-02-18T10:57:34.431Z,11.33
2019-02-18T11:00:03.332Z,11.27
2019-02-18T11:02:31.799Z,12.37
2019-02-18T11:05:00.360Z,12.60
2019-02-18T11:07:28.887Z,13.87
2019-02-18T11:09:57.326Z,10.73
2019-02-18T11:12:25.736Z,13.27
2019-02-18T11:14:54.176Z,11.87
2019-02-18T11:17:22.626Z,10.73
2019-02-18T11:19:51.079Z,11.70
2019-02-18T11:22:19.773Z,10.87
2019-02-18T11:24:48.220Z,11.37
2019-02-18T11:27:16.645Z,15.77
2019-02-18T11:29:45.089Z,9.83
2019-02-18T11:32:13.612Z,11.83
2019-02-18T11:34:42.097Z,10.27
2019-02-18T11:37:10.900Z,10.47
2019-02-18T11:39:39.906Z,8.93
2019-02-18T11:42:08.336Z,11.20
2019-02-18T11:44:36.768Z,9.70
2019-02-18T11:47:05.273Z,14.37
2019-02-18T11:49:33.714Z,11.00
2019-02-18T11:52:02.340Z,10.30
2019-02-18T11:54:30.801Z,10.27
2019-02-18T11:56:59.220Z,11.57
2019-02-18T11:59:27.665Z,10.87
2019-02-18T12:01:56.185Z,11.83
2019-02-18T12:04:24.606Z,9.97
2019-02-18T12:06:53.353Z,11.27
2019-02-18T12:09:21.778Z,10.20
2019-02-18T12:11:50.300Z,12.80
2019-02-18T12:14:18.799Z,10.70
2019-02-18T12:16:47.239Z,9.87
2019-02-18T12:19:15.656Z,10.00
2019-02-18T12:21:44.101Z,9.90
2019-02-18T12:24:12.810Z,9.60
2019-02-18T12:26:41.251Z,10.00
2019-02-18T12:29:09.665Z,10.20
2019-02-18T12:31:38.101Z,10.50
2019-02-18T12:34:06.546Z,9.40
2019-02-18T12:36:35.004Z,9.77
2019-02-18T12:39:06.105Z,9.10
2019-02-18T12:41:34.548Z,10.40
2019-02-18T12:44:02.972Z,11.00
2019-02-18T12:46:31.518Z,10.87
2019-02-18T12:48:59.953Z,10.40
2019-02-18T12:51:28.472Z,9.67
2019-02-18T12:54:04.748Z,9.73
2019-02-18T12:56:27.146Z,9.07
2019-02-18T12:58:55.599Z,11.50
2019-02-18T13:01:24.094Z,9.60
2019-02-18T13:03:52.613Z,10.20
2019-02-18T13:06:21.113Z,10.10
2019-02-18T13:08:49.617Z,9.10
2019-02-18T13:11:18.058Z,10.43
2019-02-18T13:13:46.496Z,8.50
2019-02-18T13:16:15.126Z,10.63
2019-02-18T13:18:43.633Z,10.67
2019-02-18T13:21:12.150Z,10.63
2019-02-18T13:23:40.656Z,11.33
2019-02-18T13:26:09.063Z,10.43
2019-02-18T13:28:37.508Z,9.70
2019-02-18T13:31:05.960Z,8.97
2019-02-18T13:33:34.574Z,10.53
2019-02-18T13:36:03.314Z,9.63
2019-02-18T13:38:31.825Z,10.10
2019-02-18T13:41:00.296Z,9.80
2019-02-18T13:43:28.777Z,11.20
2019-02-18T13:45:57.192Z,10.20
2019-02-18T13:48:25.625Z,13.50
2019-02-18T13:50:54.053Z,11.03
2019-02-18T13:53:22.586Z,12.47
2019-02-18T13:55:51.018Z,11.33
2019-02-18T13:58:19.438Z,9.83
2019-02-18T14:00:48.182Z,10.80
2019-02-18T14:03:16.629Z,10.37
2019-02-18T14:05:45.350Z,12.37
2019-02-18T14:08:13.774Z,10.53
2019-02-18T14:10:42.253Z,10.53
2019-02-18T14:13:10.692Z,10.00
2019-02-18T14:15:39.151Z,9.00
2019-02-18T14:18:07.733Z,10.97
2019-02-18T14:20:36.679Z,10.57
2019-02-18T14:23:05.244Z,9.90
2019-02-18T14:25:33.684Z,9.77
2019-02-18T14:28:02.085Z,9.33
2019-02-18T14:30:30.626Z,9.20
2019-02-18T14:32:59.048Z,9.30
2019-02-18T14:35:27.590Z,11.90
2019-02-18T14:37:56.110Z,10.07
2019-02-18T14:40:25.657Z,10.30
2019-02-18T14:42:54.116Z,12.67
2019-02-18T14:45:22.610Z,9.13
2019-02-18T14:47:51.134Z,19.60
2019-02-18T14:50:19.617Z,16.30
2019-02-18T14:52:48.592Z,11.40
2019-02-18T14:55:17.164Z,11.20
2019-02-18T14:57:45.693Z,11.07
2019-02-18T15:00:21.524Z,11.10
2019-02-18T15:02:51.461Z,11.57
2019-02-18T15:05:19.984Z,9.20
2019-02-18T15:07:48.420Z,9.07
2019-02-18T15:10:16.929Z,10.77
2019-02-18T15:12:45.469Z,10.50
2019-02-18T15:15:14.287Z,9.80
2019-02-18T15:17:42.876Z,10.67
2019-02-18T15:20:11.651Z,11.80
2019-02-18T15:22:40.504Z,9.73
2019-02-18T15:25:10.181Z,17.13
2019-02-18T15:27:38.696Z,13.40
2019-02-18T15:30:13.254Z,10.13
2019-02-18T15:32:41.776Z,12.53
2019-02-18T15:35:10.270Z,11.23
2019-02-18T15:37:38.707Z,9.40
2019-02-18T15:40:09.878Z,10.50
2019-02-18T15:42:42.173Z,10.07
2019-02-18T15:45:09.404Z,10.33
2019-02-18T15:47:37.962Z,12.67
2019-02-18T15:50:09.851Z,10.67
2019-02-18T15:52:39.252Z,9.50
2019-02-18T15:55:08.566Z,9.30
2019-02-18T15:57:37.080Z,9.80
2019-02-18T16:00:23.686Z,10.00
2019-02-18T16:02:52.261Z,9.70
2019-02-18T16:05:20.749Z,9.87
2019-02-18T16:07:49.248Z,10.13
2019-02-18T16:10:17.837Z,9.50
2019-02-18T16:12:50.733Z,8.53
2019-02-18T16:15:16.521Z,9.63
2019-02-18T16:17:45.216Z,9.27
2019-02-18T16:20:14.336Z,11.03
2019-02-18T16:22:42.831Z,10.07
2019-02-18T16:25:20.457Z,9.60
2019-02-18T16:27:49.032Z,10.77
2019-02-18T16:30:19.211Z,11.67
2019-02-18T16:32:47.676Z,11.10
2019-02-18T16:35:16.185Z,52.57
2019-02-18T16:37:44.659Z,18.43
2019-02-18T16:40:15.682Z,14.87
2019-02-18T16:42:44.255Z,18.03
2019-02-18T16:45:14.328Z,13.23
2019-02-18T16:47:42.829Z,13.77
2019-02-18T16:50:13.088Z,11.70
2019-02-18T16:52:41.595Z,14.30
2019-02-18T16:55:14.389Z,16.37
2019-02-18T16:57:42.887Z,20.90
2019-02-18T17:00:19.945Z,17.50
2019-02-18T17:02:48.441Z,15.40
2019-02-18T17:05:17.028Z,20.23
2019-02-18T17:07:45.513Z,14.50
2019-02-18T17:10:14.410Z,16.13
2019-02-18T17:12:43.047Z,17.03
2019-02-18T17:15:12.786Z,17.17
2019-02-18T17:17:41.503Z,19.03
2019-02-18T17:20:10.128Z,14.13
2019-02-18T17:22:38.748Z,20.47
2019-02-18T17:25:10.252Z,17.30
2019-02-18T17:27:38.855Z,18.20
2019-02-18T17:30:12.945Z,20.77
2019-02-18T17:32:41.407Z,19.70
2019-02-18T17:35:14.313Z,18.47
2019-02-18T17:37:42.835Z,22.90
2019-02-18T17:40:12.531Z,18.47
2019-02-18T17:42:41.387Z,20.23
2019-02-18T17:45:12.198Z,26.33
2019-02-18T17:47:40.687Z,45.97
2019-02-18T17:50:11.712Z,27.53
2019-02-18T17:52:40.276Z,32.00
2019-02-18T17:55:11.252Z,32.90
2019-02-18T17:57:40.108Z,51.80
2019-02-18T18:00:14.548Z,61.70
2019-02-18T18:02:43.177Z,58.70
2019-02-18T18:05:11.775Z,53.30
2019-02-18T18:07:40.327Z,46.50
2019-02-18T18:10:11.210Z,22.90
2019-02-18T18:12:40.205Z,31.20
2019-02-18T18:15:11.303Z,22.50
2019-02-18T18:17:39.879Z,26.70
2019-02-18T18:20:12.966Z,20.37
2019-02-18T18:22:41.491Z,22.70
2019-02-18T18:25:11.869Z,18.73
2019-02-18T18:27:40.486Z,20.90
2019-02-18T18:30:14.635Z,24.37
2019-02-18T18:32:45.097Z,22.00
2019-02-18T18:35:13.675Z,23.30
2019-02-18T18:37:42.274Z,25.93
2019-02-18T18:40:15.806Z,24.27
2019-02-18T18:42:44.360Z,33.47
2019-02-18T18:45:15.711Z,40.83
2019-02-18T18:47:44.413Z,44.20
2019-02-18T18:50:20.527Z,40.63
2019-02-18T18:52:49.019Z,37.00
2019-02-18T18:55:17.785Z,39.53
2019-02-18T18:57:46.306Z,32.20
2019-02-18T19:00:21.629Z,30.47
2019-02-18T19:02:50.177Z,35.80
2019-02-18T19:05:19.173Z,40.33
2019-02-18T19:07:47.621Z,28.27
2019-02-18T19:10:16.553Z,22.63
2019-02-18T19:12:45.163Z,22.03
2019-02-18T19:15:15.121Z,40.90
2019-02-18T19:17:43.667Z,57.87
2019-02-18T19:20:12.576Z,52.80
2019-02-18T19:22:41.178Z,37.67
2019-02-18T19:25:11.454Z,29.10
2019-02-18T19:27:40.073Z,28.10
2019-02-18T19:30:20.689Z,40.10
2019-02-18T19:32:49.553Z,31.60
2019-02-18T19:35:18.114Z,22.03
2019-02-18T19:37:46.719Z,35.43
2019-02-18T19:40:15.256Z,54.07
2019-02-18T19:42:43.850Z,54.27
2019-02-18T19:45:15.250Z,40.93
2019-02-18T19:47:44.104Z,39.33
2019-02-18T19:50:12.765Z,40.07
2019-02-18T19:52:41.188Z,32.90
2019-02-18T19:55:11.202Z,42.77
2019-02-18T19:57:39.748Z,57.73
2019-02-18T20:00:13.977Z,48.10
2019-02-18T20:02:42.518Z,27.30
2019-02-18T20:05:11.122Z,24.30
2019-02-18T20:07:39.745Z,24.20
2019-02-18T20:10:10.468Z,27.93
2019-02-18T20:12:39.130Z,30.40
2019-02-18T20:15:10.522Z,31.67
2019-02-18T20:17:38.989Z,24.63
2019-02-18T20:20:10.481Z,30.07
2019-02-18T20:22:38.961Z,21.80
2019-02-18T20:25:08.782Z,26.50
2019-02-18T20:27:37.474Z,26.80
2019-02-18T20:30:09.800Z,25.03
2019-02-18T20:32:39.786Z,27.37
2019-02-18T20:35:11.654Z,26.57
2019-02-18T20:37:39.800Z,41.23
2019-02-18T20:40:09.687Z,26.37
2019-02-18T20:42:38.507Z,25.00
2019-02-18T20:45:12.002Z,21.47
2019-02-18T20:47:40.464Z,23.77
2019-02-18T20:50:13.936Z,23.87
2019-02-18T20:52:42.475Z,22.50
2019-02-18T20:55:13.532Z,24.20
2019-02-18T20:57:42.161Z,29.37
2019-02-18T21:00:21.455Z,24.60
2019-02-18T21:02:50.118Z,40.80
2019-02-18T21:05:18.758Z,43.30
2019-02-18T21:07:47.267Z,29.40
2019-02-18T21:10:19.974Z,24.97
2019-02-18T21:12:48.474Z,26.77
2019-02-18T21:15:17.053Z,54.37
2019-02-18T21:17:45.611Z,53.90
2019-02-18T21:20:14.730Z,33.97
2019-02-18T21:22:43.281Z,45.13
2019-02-18T21:25:11.965Z,30.40
2019-02-18T21:27:40.432Z,25.03
2019-02-18T21:30:11.819Z,26.20
2019-02-18T21:32:40.322Z,27.87
2019-02-18T21:35:08.925Z,22.33
2019-02-18T21:37:37.453Z,46.67
2019-02-18T21:40:08.601Z,83.80
2019-02-18T21:42:37.197Z,95.03
2019-02-18T21:45:08.623Z,56.70
2019-02-18T21:47:37.239Z,49.97
2019-02-18T21:50:07.665Z,36.20
2019-02-18T21:52:36.480Z,37.67
2019-02-18T21:55:06.073Z,40.53
2019-02-18T21:57:34.755Z,35.97
2019-02-18T22:00:05.495Z,28.70
2019-02-18T22:02:34.029Z,32.70
2019-02-18T22:05:02.617Z,26.77
2019-02-18T22:07:31.460Z,23.80
2019-02-18T22:09:59.904Z,31.60
2019-02-18T22:12:28.415Z,30.10
2019-02-18T22:14:56.842Z,25.93
2019-02-18T22:17:25.322Z,27.97
2019-02-18T22:19:53.751Z,28.17
2019-02-18T22:22:22.211Z,27.80
2019-02-18T22:24:51.009Z,24.17
2019-02-18T22:27:19.499Z,27.93
2019-02-18T22:29:47.937Z,26.43
2019-02-18T22:32:16.395Z,34.50
2019-02-18T22:34:44.892Z,22.43
2019-02-18T22:37:13.368Z,21.73
2019-02-18T22:39:41.805Z,28.37
2019-02-18T22:42:10.623Z,24.30
2019-02-18T22:44:41.962Z,24.30
2019-02-18T22:47:09.251Z,22.03
2019-02-18T22:49:37.711Z,27.20
2019-02-18T22:52:06.164Z,26.63
2019-02-18T22:54:34.629Z,26.80
2019-02-18T22:57:03.077Z,28.77
2019-02-18T22:59:31.704Z,26.97
2019-02-18T23:02:00.210Z,25.37
2019-02-18T23:04:28.738Z,24.47
2019-02-18T23:06:57.292Z,22.40
2019-02-18T23:09:25.733Z,28.50
2019-02-18T23:11:54.176Z,20.07
2019-02-18T23:14:22.633Z,22.27
2019-02-18T23:16:51.045Z,22.90
2019-02-18T23:19:19.655Z,23.77
2019-02-18T23:21:48.138Z,20.60
2019-02-18T23:24:16.694Z,25.10
2019-02-18T23:26:45.189Z,23.13
2019-02-18T23:29:13.708Z,24.43
2019-02-18T23:31:42.418Z,22.83
2019-02-18T23:34:10.901Z,25.17
2019-02-18T23:36:39.353Z,21.00
2019-02-18T23:39:08.447Z,23.83
2019-02-18T23:41:36.893Z,25.00
2019-02-18T23:44:05.316Z,23.00
2019-02-18T23:46:33.757Z,22.77
2019-02-18T23:49:02.195Z,20.57
2019-02-18T23:51:30.637Z,22.70
2019-02-18T23:53:59.062Z,25.57
2019-02-18T23:56:27.517Z,21.40
2019-02-18T23:58:56.034Z,18.73
